createdAt,value
2022-09-23T00:01:18.537Z,80.50
2022-09-23T00:03:46.333Z,80.62
2022-09-23T00:06:20.321Z,80.95
2022-09-23T00:08:50.014Z,80.98
2022-09-23T00:11:20.141Z,81.01
2022-09-23T00:13:49.698Z,81.28
2022-09-23T00:16:23.874Z,81.17
2022-09-23T00:18:51.659Z,81.18
2022-09-23T00:21:20.217Z,81.26
2022-09-23T00:23:48.039Z,81.62
2022-09-23T00:26:18.377Z,81.60
2022-09-23T00:28:46.389Z,81.58
2022-09-23T00:31:16.663Z,81.58
2022-09-23T00:33:44.237Z,81.60
2022-09-23T00:36:15.046Z,81.54
2022-09-23T00:38:44.114Z,81.56
2022-09-23T00:41:14.323Z,81.56
2022-09-23T00:43:53.106Z,81.42
2022-09-23T00:46:24.328Z,81.43
2022-09-23T00:48:58.355Z,81.42
2022-09-23T00:51:29.380Z,81.31
2022-09-23T00:53:57.206Z,81.19
2022-09-23T00:56:24.779Z,81.16
2022-09-23T00:58:53.063Z,81.18
2022-09-23T01:01:21.010Z,81.29
2022-09-23T01:03:49.093Z,81.22
2022-09-23T01:06:16.687Z,81.20
2022-09-23T01:08:45.927Z,81.18
2022-09-23T01:11:25.721Z,81.06
2022-09-23T01:14:11.649Z,81.11
2022-09-23T01:16:45.521Z,81.10
2022-09-23T01:19:50.440Z,81.19
2022-09-23T01:22:45.817Z,81.11
2022-09-23T01:25:25.364Z,81.07
2022-09-23T01:27:56.408Z,81.15
2022-09-23T01:30:38.777Z,81.03
2022-09-23T01:33:26.336Z,80.98
2022-09-23T01:36:06.094Z,81.00
2022-09-23T01:38:43.013Z,81.08
2022-09-23T01:41:14.518Z,81.10
2022-09-23T01:43:51.688Z,81.05
2022-09-23T01:46:22.076Z,81.01
2022-09-23T01:49:11.101Z,81.11
2022-09-23T01:51:41.968Z,81.19
2022-09-23T01:54:15.579Z,81.07
2022-09-23T01:56:50.891Z,81.19
2022-09-23T01:59:36.784Z,81.40
2022-09-23T02:02:10.888Z,81.41
2022-09-23T02:04:57.271Z,81.47
2022-09-23T02:07:28.192Z,81.41
2022-09-23T02:09:59.334Z,81.47
2022-09-23T02:12:28.766Z,81.46
2022-09-23T02:14:59.271Z,81.41
2022-09-23T02:17:46.738Z,81.39
2022-09-23T02:20:18.334Z,81.32
2022-09-23T02:23:01.225Z,81.30
2022-09-23T02:25:35.303Z,81.28
2022-09-23T02:28:06.372Z,81.35
2022-09-23T02:30:38.407Z,81.28
2022-09-23T02:33:08.406Z,81.43
2022-09-23T02:35:43.681Z,81.42
2022-09-23T02:38:26.571Z,81.53
2022-09-23T02:41:00.772Z,81.61
2022-09-23T02:43:34.995Z,81.69
2022-09-23T02:46:03.620Z,81.62
2022-09-23T02:48:37.894Z,81.83
2022-09-23T02:51:05.655Z,81.68
2022-09-23T02:53:33.394Z,81.82
2022-09-23T02:56:01.492Z,81.90
2022-09-23T02:58:29.457Z,82.00
2022-09-23T03:01:04.533Z,82.10
2022-09-23T03:03:47.234Z,82.12
2022-09-23T03:06:27.572Z,82.28
2022-09-23T03:09:10.360Z,82.18
2022-09-23T03:11:39.922Z,82.24
2022-09-23T03:14:23.173Z,82.29
2022-09-23T03:17:06.474Z,82.25
2022-09-23T03:19:43.602Z,82.25
2022-09-23T03:22:39.325Z,82.32
2022-09-23T03:25:11.288Z,82.41
2022-09-23T03:27:42.340Z,82.41
2022-09-23T03:30:12.546Z,82.41
2022-09-23T03:32:45.484Z,82.42
2022-09-23T03:35:13.573Z,82.42
2022-09-23T03:37:47.625Z,82.48
2022-09-23T03:40:19.005Z,82.51
2022-09-23T03:42:48.463Z,82.51
2022-09-23T03:45:20.784Z,82.52
2022-09-23T03:47:48.662Z,82.56
2022-09-23T03:50:18.502Z,82.60
2022-09-23T03:52:47.049Z,82.66
2022-09-23T03:55:15.886Z,82.56
2022-09-23T03:57:44.778Z,82.59
2022-09-23T04:00:15.785Z,82.70
2022-09-23T04:02:43.667Z,82.61
2022-09-23T04:05:12.742Z,82.62
2022-09-23T04:07:40.713Z,82.50
2022-09-23T04:10:09.434Z,82.63
2022-09-23T04:12:37.179Z,82.71
2022-09-23T04:15:05.726Z,82.80
2022-09-23T04:17:34.889Z,82.91
2022-09-23T04:20:05.326Z,82.87
2022-09-23T04:22:33.693Z,82.94
2022-09-23T04:25:01.475Z,82.85
2022-09-23T04:27:37.405Z,82.91
2022-09-23T04:30:05.830Z,83.09
2022-09-23T04:32:34.959Z,83.15
2022-09-23T04:35:02.525Z,83.31
2022-09-23T04:37:29.869Z,83.27
2022-09-23T04:39:57.514Z,83.20
2022-09-23T04:42:30.830Z,83.17
2022-09-23T04:44:58.174Z,83.13
2022-09-23T04:47:25.564Z,83.34
2022-09-23T04:49:54.651Z,83.26
2022-09-23T04:52:21.870Z,83.08
2022-09-23T04:54:49.233Z,83.15
2022-09-23T04:57:16.895Z,83.21
2022-09-23T04:59:44.793Z,83.12
2022-09-23T05:02:12.111Z,83.09
2022-09-23T05:04:40.530Z,83.13
2022-09-23T05:07:08.215Z,83.24
2022-09-23T05:09:35.303Z,83.30
2022-09-23T05:12:05.206Z,83.18
2022-09-23T05:14:32.973Z,83.36
2022-09-23T05:17:00.364Z,83.47
2022-09-23T05:19:27.742Z,83.48
2022-09-23T05:21:56.006Z,83.46
2022-09-23T05:24:24.663Z,83.29
2022-09-23T05:26:53.752Z,83.20
2022-09-23T05:29:21.111Z,83.10
2022-09-23T05:31:48.444Z,82.84
2022-09-23T05:34:15.994Z,82.78
2022-09-23T05:36:43.625Z,82.63
2022-09-23T05:39:11.282Z,82.50
2022-09-23T05:41:40.488Z,82.58
2022-09-23T05:44:08.186Z,82.49
2022-09-23T05:46:36.707Z,82.36
2022-09-23T05:49:05.825Z,82.46
2022-09-23T05:51:36.471Z,82.40
2022-09-23T05:54:04.672Z,82.28
2022-09-23T05:56:33.652Z,82.18
2022-09-23T05:59:02.605Z,82.07
2022-09-23T06:01:33.130Z,82.15
2022-09-23T06:04:02.428Z,81.84
2022-09-23T06:06:33.153Z,81.94
2022-09-23T06:09:01.113Z,81.78
2022-09-23T06:11:32.862Z,81.71
2022-09-23T06:14:01.618Z,81.74
2022-09-23T06:16:32.652Z,81.67
2022-09-23T06:19:05.377Z,81.42
2022-09-23T06:21:32.988Z,81.42
2022-09-23T06:24:00.865Z,81.20
2022-09-23T06:26:30.213Z,81.20
2022-09-23T06:28:57.901Z,80.67
2022-09-23T06:31:25.663Z,80.22
2022-09-23T06:34:02.549Z,79.99
2022-09-23T06:36:39.645Z,79.68
2022-09-23T06:38:52.509Z,79.62
2022-09-23T06:41:20.227Z,79.67
2022-09-23T06:43:47.590Z,79.92
2022-09-23T06:46:15.682Z,79.99
2022-09-23T06:48:46.178Z,79.99
2022-09-23T06:51:18.612Z,80.31
2022-09-23T06:53:47.738Z,80.02
2022-09-23T06:56:16.732Z,79.77
2022-09-23T06:58:56.032Z,79.78
2022-09-23T07:01:23.623Z,79.25
2022-09-23T07:03:51.480Z,79.08
2022-09-23T07:06:19.806Z,78.83
2022-09-23T07:08:47.792Z,79.11
2022-09-23T07:11:15.653Z,79.10
2022-09-23T07:13:45.136Z,79.12
2022-09-23T07:16:12.976Z,78.91
2022-09-23T07:18:40.518Z,79.02
2022-09-23T07:21:12.698Z,78.94
2022-09-23T07:23:43.783Z,78.82
2022-09-23T07:26:12.126Z,78.79
2022-09-23T07:28:40.431Z,78.71
2022-09-23T07:31:10.744Z,78.58
2022-09-23T07:33:40.389Z,78.24
2022-09-23T07:36:10.752Z,78.14
2022-09-23T07:38:42.849Z,78.46
2022-09-23T07:41:10.332Z,78.65
2022-09-23T07:43:40.464Z,78.43
2022-09-23T07:46:11.305Z,78.26
2022-09-23T07:48:39.004Z,78.10
2022-09-23T07:51:15.569Z,78.34
2022-09-23T07:53:49.066Z,78.18
2022-09-23T07:56:18.853Z,78.08
2022-09-23T07:58:48.911Z,77.76
2022-09-23T08:01:16.432Z,77.60
2022-09-23T08:03:45.266Z,77.37
2022-09-23T08:06:13.445Z,77.13
2022-09-23T08:08:42.943Z,77.04
2022-09-23T08:11:15.960Z,76.76
2022-09-23T08:13:44.024Z,76.68
2022-09-23T08:16:11.998Z,76.74
2022-09-23T08:18:46.592Z,76.69
2022-09-23T08:21:27.838Z,76.69
2022-09-23T08:24:00.209Z,76.45
2022-09-23T08:26:29.174Z,76.42
2022-09-23T08:28:58.377Z,76.32
2022-09-23T08:31:35.361Z,76.26
2022-09-23T08:34:05.888Z,76.23
2022-09-23T08:36:34.127Z,75.85
2022-09-23T08:39:01.961Z,75.59
2022-09-23T08:41:32.943Z,75.45
2022-09-23T08:44:32.116Z,74.73
2022-09-23T08:47:39.456Z,74.18
2022-09-23T08:50:42.113Z,74.13
2022-09-23T08:56:22.993Z,74.61
2022-09-23T08:59:28.421Z,74.27
2022-09-23T09:01:58.905Z,74.08
2022-09-23T09:04:40.313Z,74.33
2022-09-23T09:09:56.718Z,74.17
2022-09-23T09:12:31.206Z,73.91
2022-09-23T09:15:07.477Z,73.88
2022-09-23T09:17:48.320Z,73.96
2022-09-23T09:20:29.395Z,73.69
2022-09-23T09:23:08.327Z,73.16
2022-09-23T09:25:49.331Z,72.97
2022-09-23T09:28:36.943Z,72.63
2022-09-23T09:31:22.124Z,72.56
2022-09-23T09:34:02.612Z,71.85
2022-09-23T09:36:47.349Z,71.86
2022-09-23T09:39:15.565Z,71.74
2022-09-23T09:41:48.615Z,70.94
2022-09-23T09:44:26.564Z,70.70
2022-09-23T09:47:19.757Z,70.62
2022-09-23T09:49:52.286Z,69.29
2022-09-23T09:52:28.966Z,68.80
2022-09-23T09:55:14.640Z,69.49
2022-09-23T09:57:54.843Z,69.66
2022-09-23T10:00:26.034Z,69.27
2022-09-23T10:02:55.366Z,69.60
2022-09-23T10:05:26.537Z,69.35
2022-09-23T10:07:54.562Z,68.53
2022-09-23T10:10:33.276Z,67.88
2022-09-23T10:12:53.472Z,67.22
2022-09-23T10:15:27.738Z,66.20
2022-09-23T10:17:55.439Z,64.38
2022-09-23T10:20:37.422Z,63.87
2022-09-23T10:23:14.773Z,62.90
2022-09-23T10:25:43.436Z,61.16
2022-09-23T10:28:30.575Z,62.03
2022-09-23T10:31:04.742Z,61.15
2022-09-23T10:33:32.212Z,61.37
2022-09-23T10:35:59.520Z,60.23
2022-09-23T10:38:26.983Z,60.06
2022-09-23T10:41:14.798Z,59.12
2022-09-23T10:44:04.560Z,58.32
2022-09-23T10:47:03.099Z,59.20
2022-09-23T10:49:51.916Z,59.04
2022-09-23T10:52:31.978Z,58.39
2022-09-23T10:55:21.111Z,56.82
2022-09-23T10:57:52.022Z,56.88
2022-09-23T11:00:46.391Z,57.44
2022-09-23T11:03:45.308Z,58.25
2022-09-23T11:06:22.444Z,58.60
2022-09-23T11:09:04.430Z,58.79
2022-09-23T11:11:54.379Z,57.70
2022-09-23T11:14:48.250Z,57.46
2022-09-23T11:17:28.248Z,55.92
2022-09-23T11:20:25.254Z,55.27
2022-09-23T11:23:07.671Z,54.31
2022-09-23T11:26:00.148Z,55.64
2022-09-23T11:28:50.166Z,55.12
2022-09-23T11:31:36.333Z,56.05
2022-09-23T11:34:24.327Z,56.01
2022-09-23T11:37:01.739Z,56.56
2022-09-23T11:39:41.909Z,55.44
2022-09-23T11:42:12.882Z,55.20
2022-09-23T11:44:42.682Z,55.05
2022-09-23T11:47:25.642Z,54.83
2022-09-23T11:50:12.245Z,55.12
2022-09-23T11:52:45.089Z,56.10
2022-09-23T11:55:23.322Z,55.66
2022-09-23T11:57:57.009Z,55.73
2022-09-23T12:00:26.314Z,55.54
2022-09-23T12:03:06.686Z,54.22
2022-09-23T12:05:40.177Z,53.34
2022-09-23T12:08:24.532Z,52.58
2022-09-23T12:11:12.336Z,53.14
2022-09-23T12:13:52.144Z,52.96
2022-09-23T12:16:35.497Z,52.47
2022-09-23T12:19:21.687Z,52.70
2022-09-23T12:22:17.078Z,52.63
2022-09-23T12:24:51.482Z,53.50
2022-09-23T12:27:31.315Z,52.31
2022-09-23T12:30:01.913Z,52.67
2022-09-23T12:32:29.849Z,52.95
2022-09-23T12:34:58.685Z,52.14
2022-09-23T12:37:35.599Z,52.92
2022-09-23T12:40:18.564Z,53.16
2022-09-23T12:42:47.244Z,52.38
2022-09-23T12:45:20.798Z,53.54
2022-09-23T12:47:47.958Z,52.88
2022-09-23T12:50:50.975Z,53.94
2022-09-23T12:53:36.931Z,54.11
2022-09-23T12:56:19.395Z,53.47
2022-09-23T12:58:50.443Z,53.78
2022-09-23T13:01:23.420Z,54.14
2022-09-23T13:04:12.125Z,54.01
2022-09-23T13:06:42.203Z,54.23
2022-09-23T13:09:19.213Z,54.58
2022-09-23T13:11:47.511Z,55.14
2022-09-23T13:14:18.203Z,55.26
2022-09-23T13:16:46.113Z,55.46
2022-09-23T13:19:28.929Z,55.81
2022-09-23T13:22:08.339Z,55.85
2022-09-23T13:24:48.134Z,55.95
2022-09-23T13:27:35.112Z,55.58
2022-09-23T13:30:25.742Z,55.59
2022-09-23T13:32:54.618Z,55.85
2022-09-23T13:35:25.941Z,56.11
2022-09-23T13:37:53.723Z,56.36
2022-09-23T13:40:29.448Z,55.93
2022-09-23T13:43:06.063Z,56.00
2022-09-23T13:45:39.437Z,55.59
2022-09-23T13:48:10.277Z,56.00
2022-09-23T13:50:40.315Z,56.81
2022-09-23T13:53:11.579Z,57.12
2022-09-23T13:55:40.842Z,56.94
2022-09-23T13:58:23.395Z,56.71
2022-09-23T14:00:51.261Z,56.85
2022-09-23T14:03:36.878Z,57.11
2022-09-23T14:06:13.803Z,56.19
2022-09-23T14:08:46.824Z,56.78
2022-09-23T14:11:16.049Z,56.90
2022-09-23T14:13:44.329Z,56.83
2022-09-23T14:16:15.384Z,57.02
2022-09-23T14:18:47.667Z,57.10
2022-09-23T14:21:35.297Z,56.54
2022-09-23T14:24:18.314Z,56.96
2022-09-23T14:26:55.256Z,57.12
2022-09-23T14:29:29.315Z,57.27
2022-09-23T14:32:03.813Z,57.82
2022-09-23T14:34:47.728Z,57.16
2022-09-23T14:37:46.438Z,56.93
2022-09-23T14:40:16.982Z,57.39
2022-09-23T14:42:49.057Z,57.36
2022-09-23T14:45:22.745Z,57.27
2022-09-23T14:48:03.238Z,57.26
2022-09-23T14:50:42.630Z,57.58
2022-09-23T14:53:37.140Z,57.82
2022-09-23T14:56:11.434Z,57.87
2022-09-23T14:58:52.363Z,58.13
2022-09-23T15:01:34.618Z,58.15
2022-09-23T15:04:13.824Z,58.06
2022-09-23T15:06:55.717Z,58.14
2022-09-23T15:09:32.495Z,58.22
2022-09-23T15:12:03.000Z,58.50
2022-09-23T15:14:39.847Z,58.54
2022-09-23T15:17:08.816Z,58.45
2022-09-23T15:19:38.251Z,58.97
2022-09-23T15:22:07.632Z,58.99
2022-09-23T15:24:43.216Z,59.27
2022-09-23T15:27:32.648Z,59.42
2022-09-23T15:30:16.777Z,59.55
2022-09-23T15:32:45.296Z,59.61
2022-09-23T15:35:15.113Z,59.73
2022-09-23T15:37:44.188Z,59.92
2022-09-23T15:40:24.560Z,60.26
2022-09-23T15:42:57.141Z,60.33
2022-09-23T15:45:32.861Z,60.67
2022-09-23T15:48:10.310Z,60.83
2022-09-23T15:50:38.866Z,60.92
2022-09-23T15:53:06.528Z,60.96
2022-09-23T15:55:33.602Z,61.26
2022-09-23T15:58:01.116Z,61.53
2022-09-23T16:00:28.910Z,61.92
2022-09-23T16:03:00.546Z,62.21
2022-09-23T16:05:33.267Z,62.51
2022-09-23T16:08:05.015Z,62.78
2022-09-23T16:10:31.171Z,63.10
2022-09-23T16:13:02.391Z,63.32
2022-09-23T16:15:31.312Z,63.43
2022-09-23T16:17:59.311Z,63.82
2022-09-23T16:20:29.195Z,63.97
2022-09-23T16:23:02.747Z,64.10
2022-09-23T16:25:33.478Z,64.40
2022-09-23T16:28:00.903Z,64.62
2022-09-23T16:30:30.967Z,64.80
2022-09-23T16:32:58.230Z,64.77
2022-09-23T16:35:26.955Z,64.99
2022-09-23T16:37:55.409Z,65.13
2022-09-23T16:40:23.808Z,65.04
2022-09-23T16:42:53.805Z,65.18
2022-09-23T16:45:22.668Z,65.51
2022-09-23T16:47:52.357Z,65.64
2022-09-23T16:50:22.211Z,65.90
2022-09-23T16:52:53.826Z,66.03
2022-09-23T16:55:21.467Z,66.28
2022-09-23T16:57:48.664Z,66.13
2022-09-23T17:00:34.814Z,66.15
2022-09-23T17:03:22.148Z,66.19
2022-09-23T17:06:00.681Z,66.56
2022-09-23T17:08:29.462Z,66.54
2022-09-23T17:10:58.455Z,66.37
2022-09-23T17:13:26.621Z,66.48
2022-09-23T17:15:54.757Z,66.33
2022-09-23T17:18:22.122Z,66.14
2022-09-23T17:21:00.536Z,66.35
2022-09-23T17:23:28.686Z,66.40
2022-09-23T17:25:56.025Z,66.53
2022-09-23T17:28:24.007Z,66.69
2022-09-23T17:30:58.827Z,66.71
2022-09-23T17:33:27.507Z,67.10
2022-09-23T17:35:56.338Z,66.88
2022-09-23T17:38:28.624Z,66.97
2022-09-23T17:40:55.198Z,67.08
2022-09-23T17:43:25.989Z,66.96
2022-09-23T17:45:58.457Z,66.97
2022-09-23T17:48:26.125Z,67.23
2022-09-23T17:51:00.694Z,67.21
2022-09-23T17:53:32.757Z,67.32
2022-09-23T17:56:03.634Z,67.28
2022-09-23T17:58:34.246Z,67.31
2022-09-23T18:01:19.080Z,67.30
2022-09-23T18:03:47.757Z,67.43
2022-09-23T18:06:18.165Z,67.57
2022-09-23T18:08:48.349Z,67.45
2022-09-23T18:11:21.509Z,67.44
2022-09-23T18:13:53.512Z,67.39
2022-09-23T18:16:23.105Z,67.36
2022-09-23T18:18:51.880Z,67.32
2022-09-23T18:21:20.535Z,67.60
2022-09-23T18:23:47.921Z,67.66
2022-09-23T18:26:18.680Z,67.69
2022-09-23T18:28:47.419Z,67.46
2022-09-23T18:31:15.453Z,67.63
2022-09-23T18:33:42.888Z,67.56
2022-09-23T18:36:10.528Z,67.61
2022-09-23T18:38:40.916Z,67.78
2022-09-23T18:41:08.772Z,67.99
2022-09-23T18:43:41.374Z,67.96
2022-09-23T18:46:14.265Z,68.73
2022-09-23T18:49:00.442Z,68.53
2022-09-23T18:51:28.826Z,68.62
2022-09-23T18:53:57.949Z,68.62
2022-09-23T18:56:32.405Z,68.63
2022-09-23T18:59:06.914Z,68.66
2022-09-23T19:01:35.112Z,68.97
2022-09-23T19:04:03.161Z,69.03
2022-09-23T19:06:34.635Z,69.16
2022-09-23T19:09:02.666Z,69.35
2022-09-23T19:11:30.538Z,69.41
2022-09-23T19:14:01.394Z,69.52
2022-09-23T19:16:30.972Z,69.57
2022-09-23T19:18:59.268Z,69.64
2022-09-23T19:21:34.657Z,69.87
2022-09-23T19:24:04.889Z,69.93
2022-09-23T19:26:36.083Z,70.11
2022-09-23T19:29:05.384Z,70.03
2022-09-23T19:31:39.929Z,70.04
2022-09-23T19:34:12.855Z,70.03
2022-09-23T19:36:42.976Z,69.86
2022-09-23T19:39:22.004Z,70.04
2022-09-23T19:41:50.724Z,70.00
2022-09-23T19:44:19.507Z,70.14
2022-09-23T19:46:53.476Z,70.26
2022-09-23T19:49:18.534Z,70.46
2022-09-23T19:51:48.916Z,70.50
2022-09-23T19:54:20.011Z,70.60
2022-09-23T19:56:49.487Z,70.73
2022-09-23T19:59:19.181Z,70.83
2022-09-23T20:01:47.999Z,70.94
2022-09-23T20:04:16.548Z,71.12
2022-09-23T20:06:45.475Z,71.05
2022-09-23T20:09:12.932Z,71.07
2022-09-23T20:11:42.212Z,71.16
2022-09-23T20:14:10.433Z,71.39
2022-09-23T20:16:38.399Z,71.34
2022-09-23T20:19:07.057Z,71.45
2022-09-23T20:21:34.931Z,71.59
2022-09-23T20:24:07.113Z,71.79
2022-09-23T20:26:53.096Z,71.96
2022-09-23T20:29:20.719Z,72.18
2022-09-23T20:31:47.962Z,72.40
2022-09-23T20:34:15.348Z,72.47
2022-09-23T20:36:43.652Z,72.50
2022-09-23T20:39:10.900Z,72.61
2022-09-23T20:41:38.570Z,72.71
2022-09-23T20:44:09.687Z,73.04
2022-09-23T20:46:38.228Z,73.00
2022-09-23T20:49:07.361Z,73.06
2022-09-23T20:51:35.607Z,73.02
2022-09-23T20:54:03.012Z,72.99
2022-09-23T20:56:30.772Z,73.27
2022-09-23T20:59:02.745Z,73.33
2022-09-23T21:01:32.336Z,73.47
2022-09-23T21:04:00.161Z,73.44
2022-09-23T21:06:27.243Z,73.62
2022-09-23T21:08:54.695Z,73.49
2022-09-23T21:11:22.115Z,73.16
2022-09-23T21:13:50.829Z,73.29
2022-09-23T21:16:21.574Z,73.53
2022-09-23T21:18:49.852Z,73.66
2022-09-23T21:21:19.120Z,73.65
2022-09-23T21:23:47.307Z,73.59
2022-09-23T21:26:20.096Z,73.90
2022-09-23T21:28:49.180Z,73.92
2022-09-23T21:31:27.754Z,73.83
2022-09-23T21:33:55.756Z,73.84
2022-09-23T21:36:24.025Z,74.07
2022-09-23T21:38:52.024Z,74.31
2022-09-23T21:41:19.560Z,74.59
2022-09-23T21:43:48.739Z,74.80
2022-09-23T21:46:21.377Z,75.02
2022-09-23T21:48:54.507Z,75.14
2022-09-23T21:51:24.809Z,75.16
2022-09-23T21:53:53.974Z,75.32
2022-09-23T21:56:24.947Z,75.49
2022-09-23T21:58:53.844Z,75.54
2022-09-23T22:01:26.418Z,75.66
2022-09-23T22:03:56.219Z,75.69
2022-09-23T22:06:26.558Z,75.63
2022-09-23T22:09:00.382Z,75.58
2022-09-23T22:11:48.228Z,75.43
2022-09-23T22:14:17.668Z,75.45
2022-09-23T22:16:45.570Z,75.58
2022-09-23T22:19:14.547Z,75.74
2022-09-23T22:21:44.252Z,75.67
2022-09-23T22:24:12.590Z,75.79
2022-09-23T22:26:41.865Z,75.92
2022-09-23T22:29:29.893Z,75.91
2022-09-23T22:32:16.256Z,76.22
2022-09-23T22:34:50.567Z,76.23
2022-09-23T22:37:20.431Z,76.42
2022-09-23T22:39:47.647Z,76.42
2022-09-23T22:42:15.556Z,76.43
2022-09-23T22:44:43.259Z,76.45
2022-09-23T22:47:10.660Z,76.37
2022-09-23T22:49:37.879Z,76.28
2022-09-23T22:52:08.743Z,76.20
2022-09-23T22:54:36.014Z,76.10
2022-09-23T22:57:04.773Z,76.08
2022-09-23T22:59:32.062Z,76.36
2022-09-23T23:02:01.771Z,76.40
2022-09-23T23:04:30.445Z,76.54
2022-09-23T23:06:59.751Z,76.80
2022-09-23T23:09:26.901Z,77.08
2022-09-23T23:11:54.132Z,77.11
2022-09-23T23:14:21.766Z,77.00
2022-09-23T23:16:49.047Z,77.36
2022-09-23T23:19:17.716Z,77.21
2022-09-23T23:21:45.732Z,77.31
2022-09-23T23:24:22.015Z,77.36
2022-09-23T23:26:50.675Z,77.59
2022-09-23T23:29:19.570Z,77.76
2022-09-23T23:31:47.606Z,77.83
2022-09-23T23:34:17.745Z,77.81
2022-09-23T23:36:46.087Z,78.00
2022-09-23T23:39:13.826Z,77.97
2022-09-23T23:41:41.913Z,77.92
2022-09-23T23:44:11.302Z,78.07
2022-09-23T23:46:39.262Z,77.99
2022-09-23T23:49:06.675Z,78.01
2022-09-23T23:51:34.034Z,78.01
2022-09-23T23:54:01.346Z,78.16
2022-09-23T23:56:30.576Z,78.27
2022-09-23T23:59:04.285Z,78.38
